Etusivu
METAR-TAF:

METAR-TAF

Lentoasemat :

Natchez-Adams County Airport (Hardy-Anders Field)

Natchez, Mississippi, Yhdysvallat

Leveyspiiri: 31-37N, Pituuspiiri: 091-18W, korkeus merenpinnasta: 83 m

Tämänhetkinen sää

Tämä raportti tehtiin 15 minuuttia sitten, kello 14.56 UTC
tyyntä
Lämpötila 14°C
Kosteus 94%
Ilmanpaine 1011 hPa
Näkyvyys: 12.9 km
Pilvistä 300 ft:n korkeudessa

METAR: KHEZ 191456Z AUTO 00000KT 8SM OVC003 14/13 A2984 RMK AO2 CIG 002V006 SLP104 T01440133 51007

Aika: 10:11 (15:11 UTC)


TAF: puuttuu

Säähavainnot ja -ennusteet yli 4000 lentoasemalta (METAR- ja TAF-raportit).

Käytössä olevat sääasemat on merkitty karttaan keltaisilla ja punaisilla pisteillä.

Aseta hiiri pisteen päälle nähdäksesi sääaseman nimen.

Klikkaa sitten nähdäksesi säähavainnot ja -ennusteet.

Kartan vaihtaminen: klikkaa mustalla rastilla varustettuja vihreitä pisteitä, niin voit zoomata sisään; viivalla varustettua vihreää pistettä, niin voit zoomata ulos tai vihreitä nuolia, niin pääset viereisille kartoille.


METAR-TAF: